Latest Weather Observations for Hindmarsh Island

IDS60901

Issued at 11:05 am CDT Wednesday 26 November 2014 (issued every 10 minutes, with the page automatically refreshed every 10 minutes)

About weather observations | Map of Adelaide area stations | Latest observations for Adelaide area | Other Formats
Station Details ID: 023894 Name: HINDMARSH ISLAND AWS Lat: -35.52 Lon: 138.82 Height: 11.0 m
Data from the previous 72 hours. | See also: Recent months at Hindmarsh Island
Date/Time
CDT
Tmp

°C
App
Tmp
°C
Dew
Point
°C
Rel
Hum
%
Delta-T

°C
Wind Press
QNH
hPa
Press
MSL
hPa
Rain
since
9 am
mm
Dir
 
Spd
km/h
Gust
km/h
Spd
kts
Gust
kts
26/11:00am 17.7 13.8 8.6 55 4.7 SSW 19 24 10 13 1024.7 - 0.0
26/10:30am 17.1 13.0 8.8 58 4.3 S 20 26 11 14 1024.6 - 0.0
26/10:00am 17.0 14.3 8.9 59 4.2 S 13 20 7 11 1024.4 - 0.0
26/09:30am 16.3 12.8 8.8 61 3.8 S 17 20 9 11 1024.3 - 0.0
26/09:00am 16.2 13.8 7.2 55 4.4 S 9 13 5 7 1024.1 1023.9 0.0
26/08:30am 16.0 13.3 7.2 56 4.4 S 11 13 6 7 1023.9 - 0.0
26/08:00am 15.9 13.4 6.6 54 4.5 SSE 9 15 5 8 1023.5 - 0.0
26/07:30am 15.9 12.4 7.4 57 4.2 S 15 20 8 11 1023.2 - 0.0
26/07:00am 15.1 12.5 7.9 62 3.6 SE 11 19 6 10 1022.9 - 0.0
26/06:30am 14.5 11.7 7.1 61 3.6 SSE 11 15 6 8 1022.6 - 0.0
26/06:00am 14.4 11.4 7.9 65 3.2 S 13 13 7 7 1022.3 1022.1 0.0
26/05:30am 14.3 11.2 7.1 62 3.5 S 13 17 7 9 1022.0 - 0.0
26/05:00am 14.3 10.8 7.4 63 3.4 S 15 17 8 9 1021.8 - 0.0
26/04:30am 14.7 11.9 8.6 67 3.1 S 13 17 7 9 1021.9 - 0.0
26/04:00am 14.5 11.7 8.7 68 2.9 S 13 17 7 9 1021.8 - 0.0
26/03:30am 14.5 11.7 8.7 68 2.9 S 13 17 7 9 1021.8 - 0.0
26/03:00am 14.4 11.2 8.6 68 2.9 S 15 17 8 9 1021.8 1021.7 0.0
26/02:30am 14.7 11.9 8.6 67 3.1 S 13 20 7 11 1021.8 - 0.0
26/02:00am 14.5 11.1 7.8 64 3.3 S 15 20 8 11 1022.1 - 0.0
26/01:30am 14.4 11.0 7.7 64 3.3 S 15 19 8 10 1022.3 - 0.0
26/01:00am 14.6 10.9 7.9 64 3.3 S 17 19 9 10 1022.5 - 0.0
26/12:30am 14.7 10.5 7.5 62 3.6 S 19 22 10 12 1022.8 - 0.0
26/12:00am 14.8 10.6 7.4 61 3.6 S 19 26 10 14 1023.1 1023.0 0.0
 
Date/Time
CDT
Tmp

°C
App
Tmp
°C
Dew
Point
°C
Rel
Hum
%
Delta-T

°C
Wind Press
QNH
hPa
Press
MSL
hPa
Rain
since
9 am
mm
Dir
 
Spd
km/h
Gust
km/h
Spd
kts
Gust
kts
25/11:30pm 14.9 10.6 7.9 63 3.5 S 20 24 11 13 1023.0 - 0.0
25/11:00pm 14.9 10.7 8.2 64 3.4 S 20 26 11 14 1023.4 - 0.0
25/10:30pm 15.0 10.4 8.0 63 3.5 S 22 28 12 15 1023.4 - 0.0
25/10:00pm 15.1 10.1 7.9 62 3.6 S 24 32 13 17 1023.5 - 0.0
25/09:30pm 15.1 9.8 8.6 65 3.3 S 26 30 14 16 1023.4 - 0.0
25/09:00pm 15.3 10.1 8.8 65 3.3 S 26 32 14 17 1023.0 1022.8 0.0
25/08:30pm 15.4 9.5 8.9 65 3.3 S 30 35 16 19 1023.0 - 0.0
25/08:00pm 15.5 10.2 8.5 63 3.5 S 26 33 14 18 1022.8 - 0.0
25/07:30pm 15.7 11.0 9.1 65 3.4 S 24 30 13 16 1022.8 - 0.0
25/07:00pm 16.4 11.5 8.6 60 4.0 S 24 30 13 16 1022.6 - 0.0
25/06:30pm 17.2 13.0 9.6 61 4.0 SSW 22 28 12 15 1022.4 - 0.0
25/06:00pm 16.8 12.0 8.8 59 4.1 S 24 28 13 15 1022.3 1022.2 0.0
25/05:30pm 17.6 12.6 9.5 59 4.2 S 26 33 14 18 1022.2 - 0.0
25/05:00pm 17.1 11.8 10.0 63 3.7 S 28 35 15 19 1022.1 - 0.0
25/04:30pm 17.2 11.9 9.9 62 3.8 S 28 35 15 19 1022.2 - 0.0
25/04:00pm 17.1 11.1 8.8 58 4.3 SSW 30 35 16 19 1022.2 - 0.0
25/03:30pm 17.6 11.7 7.6 52 5.0 S 28 33 15 18 1022.3 - 0.0
25/03:00pm 18.2 12.4 9.3 56 4.6 S 30 33 16 18 1022.4 1022.3 0.0
25/02:30pm 17.9 11.9 10.0 60 4.2 SSW 32 37 17 20 1022.3 - 0.0
25/02:00pm 19.2 13.5 8.5 50 5.6 S 28 32 15 17 1022.4 - 0.0
25/01:30pm 17.5 12.5 9.4 59 4.2 S 26 32 14 17 1022.6 - 0.0
25/01:00pm 18.7 13.3 8.1 50 5.4 SSW 26 33 14 18 1022.6 - 0.0
25/12:30pm 19.0 14.2 8.9 52 5.3 S 24 30 13 16 1022.6 - 0.0
25/12:00pm 19.2 14.2 9.7 54 5.0 S 26 30 14 16 1022.7 1022.7 0.0
25/11:30am 18.2 13.3 10.1 59 4.3 SSW 26 32 14 17 1023.0 - 0.0
25/11:00am 17.7 12.5 10.3 62 3.9 SSW 28 33 15 18 1023.2 - 0.0
25/10:30am 15.5 11.2 10.9 74 2.4 SSW 24 30 13 16 1023.2 - 0.0
25/10:00am 16.4 11.1 9.8 65 3.5 SW 28 37 15 20 1023.0 - 0.0
25/09:30am 17.6 13.9 7.9 53 4.9 SW 17 20 9 11 1022.9 - 0.0
25/09:00am 17.4 14.0 7.7 53 4.9 SW 15 20 8 11 1022.7 1022.6 0.2
25/08:30am 16.7 13.7 7.6 55 4.6 WSW 13 19 7 10 1022.4 - 0.2
25/08:00am 15.0 11.6 7.8 62 3.6 W 15 20 8 11 1022.2 - 0.2
25/07:30am 15.4 12.6 8.4 63 3.5 W 13 17 7 9 1021.9 - 0.2
25/07:00am 15.1 10.3 7.4 60 3.8 SSW 22 28 12 15 1021.3 - 0.2
25/06:30am 14.9 9.9 8.2 64 3.4 SSW 24 30 13 16 1020.9 - 0.2
25/06:00am 14.8 10.7 8.7 67 3.1 SW 20 32 11 17 1020.4 1020.3 0.2
25/05:30am 14.7 9.4 8.4 66 3.2 SSW 26 32 14 17 1019.9 - 0.2
25/05:00am 14.7 9.4 8.4 66 3.2 SW 26 30 14 16 1019.7 - 0.2
25/04:30am 15.1 10.4 9.2 68 3.0 SSW 24 32 13 17 1019.5 - 0.2
25/04:00am 14.8 9.1 8.3 65 3.3 SSW 28 32 15 17 1019.3 - 0.2
25/03:30am 14.9 8.5 8.4 65 3.3 SSW 32 37 17 20 1019.2 - 0.2
25/03:00am 15.0 9.0 8.7 66 3.2 SSW 30 35 16 19 1019.2 1019.1 0.2
25/02:30am 15.0 8.5 8.0 63 3.5 SSW 32 39 17 21 1019.1 - 0.2
25/02:00am 15.4 10.2 8.9 65 3.3 SSW 26 35 14 19 1019.2 - 0.2
25/01:30am 15.2 9.3 8.9 66 3.2 SW 30 37 16 20 1019.2 - 0.2
25/01:00am 15.1 8.3 7.6 61 3.7 SW 33 44 18 24 1019.3 - 0.2
25/12:30am 15.4 9.0 8.4 63 3.5 SW 32 39 17 21 1019.3 - 0.2
25/12:00am 15.4 8.6 7.9 61 3.7 SW 33 44 18 24 1019.3 1019.2 0.2
 
Date/Time
CDT
Tmp

°C
App
Tmp
°C
Dew
Point
°C
Rel
Hum
%
Delta-T

°C
Wind Press
QNH
hPa
Press
MSL
hPa
Rain
since
9 am
mm
Dir
 
Spd
km/h
Gust
km/h
Spd
kts
Gust
kts
24/11:30pm 15.3 7.8 7.8 61 3.7 SW 37 46 20 25 1018.9 - 0.2
24/11:00pm 15.3 7.3 7.6 60 3.8 SW 39 48 21 26 1018.9 - 0.2
24/10:30pm 15.3 7.2 7.1 58 4.0 SW 39 46 21 25 1019.0 - 0.2
24/10:00pm 15.4 7.9 7.9 61 3.8 SW 37 43 20 23 1018.8 - 0.2
24/09:30pm 15.6 9.0 8.4 62 3.6 SW 33 41 18 22 1018.5 - 0.2
24/09:00pm 15.4 8.4 6.9 57 4.2 SW 33 44 18 24 1018.1 1018.0 0.2
24/08:30pm 15.4 7.7 6.9 57 4.2 SW 37 48 20 26 1017.8 - 0.2
24/08:00pm 15.5 7.0 6.8 56 4.3 SW 41 54 22 29 1017.3 - 0.2
24/07:30pm 16.0 6.8 8.0 59 4.0 SW 46 57 25 31 1016.6 - 0.2
24/07:00pm 16.5 7.7 8.0 57 4.3 SW 44 57 24 31 1016.0 - 0.2
24/06:30pm 16.8 7.0 7.2 53 4.8 SW 48 59 26 32 1015.8 - 0.2
24/06:00pm 17.8 9.1 8.4 54 4.8 SW 44 59 24 32 1015.6 1015.5 0.2
24/05:30pm 17.6 8.7 9.2 58 4.4 SW 46 57 25 31 1015.2 - 0.2
24/05:00pm 18.3 10.4 9.4 56 4.7 SSW 41 50 22 27 1015.1 - 0.2
24/04:30pm 18.5 10.4 8.5 52 5.2 SSW 41 50 22 27 1014.8 - 0.2
24/04:00pm 18.7 10.0 8.4 51 5.3 SW 44 54 24 29 1014.6 - 0.2
24/03:30pm 18.8 10.5 7.9 49 5.6 SW 41 50 22 27 1014.5 - 0.2
24/03:00pm 18.9 10.5 9.7 55 4.9 SSW 44 54 24 29 1014.3 1014.3 0.2
24/02:30pm 18.9 10.3 8.8 52 5.3 SW 44 57 24 31 1014.2 - 0.2
24/02:00pm 19.2 11.7 11.0 59 4.5 SSW 41 50 22 27 1014.1 - 0.2
24/01:30pm 18.3 10.6 11.4 64 3.8 SW 43 52 23 28 1013.9 - 0.2
24/01:00pm 18.6 11.0 11.7 64 3.8 SW 43 54 23 29 1013.7 - 0.2
24/12:30pm 19.6 12.1 10.9 57 4.7 SW 41 52 22 28 1013.5 - 0.2
24/12:00pm 18.4 10.5 9.5 56 4.7 SW 41 48 22 26 1013.3 1013.2 0.2
24/11:30am 16.8 10.1 13.3 80 2.0 SW 41 50 22 27 1013.3 - 0.2
24/11:05am 18.1 13.9 13.4 74 2.7 SW 28 48 15 26 1012.9 - 0.2
24/11:00am 19.2 15.9 12.9 67 3.6 SW 22 28 12 15 1012.8 - 0.2
24/10:30am 19.8 16.9 12.3 62 4.2 SW 19 24 10 13 1012.9 - 0.0
24/10:00am 20.0 17.2 13.2 65 3.9 SW 20 28 11 15 1012.7 - 0.0
24/09:30am 18.9 15.5 12.4 66 3.6 SW 22 26 12 14 1012.3 - 0.0
24/09:00am 18.2 15.1 13.5 74 2.7 SW 22 30 12 16 1012.0 1011.9 7.0
24/08:30am 17.5 13.9 13.2 76 2.4 SSW 24 28 13 15 1011.3 - 7.0
24/08:00am 16.9 12.3 12.4 75 2.5 SSW 28 32 15 17 1011.1 - 7.0
24/07:30am 16.7 11.5 12.8 78 2.2 SSW 32 39 17 21 1010.5 - 7.0
24/07:00am 16.2 12.1 12.6 79 2.0 S 26 30 14 16 1010.1 - 7.0
24/06:30am 15.9 11.0 12.5 80 1.9 S 30 39 16 21 1009.9 - 7.0
24/06:00am 16.4 10.1 12.4 77 2.2 S 37 46 20 25 1009.5 1009.1 5.6
24/05:30am 16.1 10.0 11.7 75 2.4 S 35 41 19 22 1008.8 - 5.6
24/05:00am 16.3 11.4 13.8 85 1.4 SSW 32 35 17 19 1008.4 - 5.6
24/04:30am 16.2 10.8 12.9 81 1.8 S 33 39 18 21 1007.4 - 5.0
24/04:00am 16.6 11.8 13.9 84 1.5 S 32 39 17 21 1008.8 - 2.0
24/03:52am 17.0 12.1 13.7 81 1.9 S 32 44 17 24 1007.9 - 0.4
24/03:44am 17.6 11.3 13.5 77 2.3 SW 39 44 21 24 1009.2 - 0.0
24/03:30am 17.2 12.2 13.3 78 2.2 S 32 39 17 21 1007.9 - 0.0
24/03:00am 17.9 14.4 13.4 75 2.5 SSW 24 32 13 17 1008.6 1008.5 0.0
24/02:30am 17.9 15.5 12.8 72 2.9 SSW 17 20 9 11 1008.1 - 0.0
24/02:00am 17.7 17.1 12.2 70 3.0 S 7 9 4 5 1008.3 - 0.0
24/01:30am 17.6 16.5 11.8 69 3.2 S 9 11 5 6 1008.5 - 0.0
24/01:00am 17.2 15.8 11.0 67 3.3 E 9 11 5 6 1009.0 - 0.0
24/12:30am 17.9 15.9 11.5 66 3.5 SSE 13 17 7 9 1009.6 - 0.0
24/12:00am 18.0 15.7 11.6 66 3.5 SSE 15 17 8 9 1009.6 1009.6 0.0
 
Date/Time
CDT
Tmp

°C
App
Tmp
°C
Dew
Point
°C
Rel
Hum
%
Delta-T

°C
Wind Press
QNH
hPa
Press
MSL
hPa
Rain
since
9 am
mm
Dir
 
Spd
km/h
Gust
km/h
Spd
kts
Gust
kts
23/11:30pm 18.0 16.6 12.2 69 3.2 SSE 11 17 6 9 1009.8 - 0.0
23/11:00pm 18.3 16.7 12.7 70 3.1 SSE 13 20 7 11 1010.6 - 0.0
23/10:30pm 18.2 15.9 13.1 72 2.9 SSE 17 20 9 11 1010.6 - 0.0
23/10:00pm 18.5 16.6 13.1 71 3.0 SSE 15 17 8 9 1010.7 - 0.0
23/09:30pm 18.7 16.1 13.3 71 3.1 SE 19 22 10 12 1010.5 - 0.0
23/09:00pm 19.0 16.1 13.0 68 3.4 SE 20 26 11 14 1010.3 1010.2 0.0
23/08:30pm 19.2 16.5 13.6 70 3.2 SSE 20 26 11 14 1009.8 - 0.0
23/08:00pm 19.7 17.1 13.2 66 3.7 SE 19 22 10 12 1009.9 - 0.0
23/07:30pm 19.9 16.6 12.7 63 4.1 SSE 22 28 12 15 1009.3 - 0.0
23/07:00pm 19.7 16.8 13.9 69 3.3 SE 22 26 12 14 1009.5 - 0.0
23/06:30pm 20.9 18.4 13.4 62 4.3 SE 19 20 10 11 1009.8 - 0.0
23/06:00pm 20.4 18.0 12.6 61 4.4 S 17 20 9 11 1010.2 1010.1 0.0
23/05:30pm 20.3 18.6 12.5 61 4.4 S 13 17 7 9 1010.4 - 0.0
23/05:00pm 20.2 19.0 12.7 62 4.2 SSE 11 13 6 7 1010.6 - 0.0
23/04:30pm 21.2 18.8 12.6 58 4.9 S 17 20 9 11 1010.7 - 0.0
23/04:00pm 20.8 19.0 12.2 58 4.8 S 13 17 7 9 1011.6 - 0.0
23/03:30pm 21.2 18.7 11.2 53 5.5 S 15 20 8 11 1011.9 - 0.0
23/03:00pm 21.3 18.2 12.2 56 5.1 S 20 24 11 13 1012.0 1011.7 0.0
23/02:30pm 21.4 17.2 12.5 57 5.0 S 26 32 14 17 1011.5 - 0.0
23/02:00pm 21.6 17.8 13.5 60 4.7 S 26 32 14 17 1011.7 - 0.0
23/01:30pm 21.4 18.0 13.8 62 4.4 S 24 28 13 15 1012.2 - 0.0
23/01:00pm 21.0 18.4 13.2 61 4.5 S 19 22 10 12 1012.5 - 0.0
23/12:30pm 21.5 18.4 13.4 60 4.7 S 22 26 12 14 1012.5 - 0.0
23/12:00pm 21.0 18.5 13.4 62 4.4 SSE 19 22 10 12 1012.6 1012.5 0.0
23/11:30am 20.9 18.4 13.6 63 4.2 SSE 19 20 10 11 1012.6 - 0.0

Latest Capital City Observations: Canberra | Sydney | Melbourne | Brisbane | Adelaide | Perth | Hobart | Darwin

Other Formats:

Comma delimited format used in spreadsheet applications
http://www.bom.gov.au/fwo/IDS60901/IDS60901.94677.axf

JavaScript Object Notation format (JSON) in row-major order
http://www.bom.gov.au/fwo/IDS60901/IDS60901.94677.json